Terminal Aerodrome Forecast
Issued by NWS Twin Cities, MN

Home | Current Version | Previous Version | Graphics & Text | Print | Product List | Glossary On
Versions: 1 2 3 4 5 6 7 8 9 10 11 12 13 14 15 16
000
FTUS43 KMPX 271722
TAFSTC
TAF
KSTC 271722Z 2718/2818 13011G16KT P6SM SCT030
      TEMPO 2718/2719 BKN025
     FM280200 15008KT P6SM BKN050
     FM280800 14012G18KT P6SM VCTS BKN050CB
      TEMPO 2809/2812 5SM -TSRA BKN040CB
     FM281200 15012KT 4SM BR OVC007
     FM281500 16013KT 6SM BR SCT008 OVC020=

USA.gov is the U.S. government's official web portal to all federal, state and local government web resources and services.